Terminal Aerodrome Forecast
Issued by NWS Grand Forks, ND

Home | Current Version | Previous Version | Graphics & Text | Print | Product List | Glossary On
Versions: 1 2 3 4 5 6 7 8 9 10 11 12 13 14 15 16 17 18 19 20 21
000
FTUS43 KFGF 181500 AAA
TAFGFK
TAF AMD
KGFK 181503Z 1815/1912 23006KT P6SM VCSH SCT050 BKN080
      TEMPO 1815/1816 2SM SHRA BKN050
     FM181600 28008KT P6SM VCTS BKN035CB
     FM181900 34009KT P6SM VCTS BKN070CB
     FM190000 33005KT P6SM SKC=

USA.gov is the U.S. government's official web portal to all federal, state and local government web resources and services.